createdAt,value
2018-04-13T00:00:08.419Z,67.30
2018-04-13T00:02:36.534Z,67.30
2018-04-13T00:05:04.632Z,67.50
2018-04-13T00:07:32.752Z,67.70
2018-04-13T00:10:00.852Z,67.90
2018-04-13T00:12:28.982Z,67.90
2018-04-13T00:14:57.077Z,67.40
2018-04-13T00:17:25.185Z,66.50
2018-04-13T00:19:53.336Z,65.90
2018-04-13T00:22:21.435Z,65.50
2018-04-13T00:24:50.509Z,65.80
2018-04-13T00:27:18.611Z,66.00
2018-04-13T00:29:46.743Z,66.30
2018-04-13T00:32:14.831Z,66.70
2018-04-13T00:34:43.243Z,67.00
2018-04-13T00:37:11.352Z,67.10
2018-04-13T00:39:39.479Z,67.10
2018-04-13T00:42:08.372Z,67.20
2018-04-13T00:44:37.420Z,67.00
2018-04-13T00:47:05.547Z,66.70
2018-04-13T00:49:33.747Z,66.20
2018-04-13T00:52:02.366Z,65.80
2018-04-13T00:54:30.571Z,65.20
2018-04-13T00:56:58.723Z,64.90
2018-04-13T00:59:27.678Z,65.40
2018-04-13T01:01:56.631Z,65.00
2018-04-13T01:04:24.756Z,65.00
2018-04-13T01:06:52.884Z,64.70
2018-04-13T01:09:20.997Z,64.50
2018-04-13T01:11:49.594Z,64.40
2018-04-13T01:14:18.491Z,63.90
2018-04-13T01:16:47.358Z,64.30
2018-04-13T01:19:15.480Z,64.20
2018-04-13T01:21:43.578Z,64.40
2018-04-13T01:24:11.746Z,64.80
2018-04-13T01:26:39.848Z,65.50
2018-04-13T01:29:08.728Z,67.30
2018-04-13T01:31:36.841Z,67.30
2018-04-13T01:34:04.955Z,67.80
2018-04-13T01:36:33.163Z,67.80
2018-04-13T01:39:01.404Z,67.30
2018-04-13T01:41:30.327Z,67.60
2018-04-13T01:43:58.449Z,67.60
2018-04-13T01:46:26.566Z,67.20
2018-04-13T01:48:54.659Z,66.90
2018-04-13T01:51:22.795Z,66.70
2018-04-13T01:53:51.680Z,66.80
2018-04-13T01:56:19.799Z,66.80
2018-04-13T01:58:47.933Z,66.60
2018-04-13T02:01:16.046Z,66.90
2018-04-13T02:03:44.140Z,67.30
2018-04-13T02:06:12.248Z,68.30
2018-04-13T02:08:40.803Z,67.80
2018-04-13T02:11:08.924Z,67.90
2018-04-13T02:13:37.063Z,67.90
2018-04-13T02:16:05.183Z,67.90
2018-04-13T02:18:33.284Z,67.80
2018-04-13T02:21:01.467Z,67.60
2018-04-13T02:23:29.653Z,67.60
2018-04-13T02:25:57.777Z,67.10
2018-04-13T02:28:25.891Z,66.90
2018-04-13T02:30:54.039Z,67.10
2018-04-13T02:33:22.147Z,67.50
2018-04-13T02:35:50.279Z,67.90
2018-04-13T02:38:18.396Z,67.70
2018-04-13T02:40:47.248Z,67.60
2018-04-13T02:43:15.365Z,67.50
2018-04-13T02:45:44.243Z,68.40
2018-04-13T02:48:13.131Z,68.70
2018-04-13T02:50:41.251Z,68.40
2018-04-13T02:53:09.387Z,68.40
2018-04-13T02:55:38.302Z,68.70
2018-04-13T02:58:07.175Z,69.70
2018-04-13T03:00:35.332Z,68.90
2018-04-13T03:03:03.432Z,69.00
2018-04-13T03:05:31.543Z,68.90
2018-04-13T03:07:59.652Z,69.20
2018-04-13T03:10:27.824Z,68.60
2018-04-13T03:12:55.982Z,68.70
2018-04-13T03:15:24.091Z,68.70
2018-04-13T03:17:52.201Z,68.60
2018-04-13T03:20:20.323Z,68.30
2018-04-13T03:22:48.493Z,68.00
2018-04-13T03:25:16.651Z,67.30
2018-04-13T03:27:44.791Z,66.70
2018-04-13T03:30:12.884Z,66.50
2018-04-13T03:32:41.007Z,66.30
2018-04-13T03:35:09.124Z,66.30
2018-04-13T03:37:37.228Z,66.40
2018-04-13T03:40:05.431Z,66.20
2018-04-13T03:42:33.558Z,65.60
2018-04-13T03:45:01.705Z,65.20
2018-04-13T03:47:29.821Z,65.20
2018-04-13T03:49:58.743Z,64.80
2018-04-13T03:52:27.613Z,64.70
2018-04-13T03:54:55.720Z,64.70
2018-04-13T03:57:23.838Z,64.80
2018-04-13T03:59:52.015Z,64.50
2018-04-13T04:02:20.888Z,64.10
2018-04-13T04:04:48.994Z,64.10
2018-04-13T04:07:17.144Z,63.80
2018-04-13T04:09:45.243Z,63.60
2018-04-13T04:12:13.417Z,63.50
2018-04-13T04:14:42.372Z,63.10
2018-04-13T04:17:11.152Z,63.10
2018-04-13T04:19:51.933Z,63.00
2018-04-13T04:22:32.556Z,62.80
2018-04-13T04:25:13.559Z,62.80
2018-04-13T04:27:42.445Z,63.90
2018-04-13T04:30:10.547Z,63.90
2018-04-13T04:32:38.712Z,63.90
2018-04-13T04:35:06.828Z,63.50
2018-04-13T04:37:34.956Z,63.30
2018-04-13T04:40:03.086Z,63.20
2018-04-13T04:42:31.260Z,62.90
2018-04-13T04:44:59.388Z,62.80
2018-04-13T04:47:27.488Z,62.70
2018-04-13T04:49:55.699Z,62.60
2018-04-13T04:52:23.838Z,62.60
2018-04-13T04:54:52.248Z,62.60
2018-04-13T04:57:20.529Z,62.60
2018-04-13T04:59:48.628Z,62.50
2018-04-13T05:02:16.753Z,62.40
2018-04-13T05:04:44.864Z,62.40
2018-04-13T05:07:12.970Z,62.30
2018-04-13T05:09:41.077Z,62.30
2018-04-13T05:12:09.247Z,62.30
2018-04-13T05:14:37.333Z,62.20
2018-04-13T05:17:06.368Z,62.10
2018-04-13T05:19:34.496Z,62.10
2018-04-13T05:22:02.625Z,62.10
2018-04-13T05:24:30.837Z,62.10
2018-04-13T05:26:58.936Z,62.10
2018-04-13T05:29:27.132Z,62.10
2018-04-13T05:31:55.263Z,62.00
2018-04-13T05:34:23.620Z,62.10
2018-04-13T05:36:51.740Z,62.10
2018-04-13T05:39:20.695Z,62.20
2018-04-13T05:41:50.914Z,62.30
2018-04-13T05:44:19.103Z,62.30
2018-04-13T05:46:47.328Z,62.30
2018-04-13T05:49:15.583Z,63.10
2018-04-13T05:51:43.790Z,62.30
2018-04-13T05:54:11.900Z,62.30
2018-04-13T05:56:40.012Z,62.70
2018-04-13T05:59:08.216Z,63.30
2018-04-13T06:01:37.099Z,63.60
2018-04-13T06:04:06.237Z,63.50
2018-04-13T06:06:34.351Z,63.50
2018-04-13T06:09:02.479Z,63.60
2018-04-13T06:11:30.591Z,64.30
2018-04-13T06:13:59.187Z,64.50
2018-04-13T06:16:27.319Z,65.20
2018-04-13T06:18:55.483Z,65.60
2018-04-13T06:21:23.548Z,65.90
2018-04-13T06:23:52.416Z,66.90
2018-04-13T06:26:20.533Z,66.90
2018-04-13T06:28:48.656Z,66.50
2018-04-13T06:31:16.793Z,65.80
2018-04-13T06:33:45.647Z,66.90
2018-04-13T06:36:13.837Z,66.90
2018-04-13T06:38:41.938Z,67.90
2018-04-13T06:41:10.803Z,68.60
2018-04-13T06:43:38.960Z,68.60
2018-04-13T06:46:07.061Z,68.40
2018-04-13T06:48:35.264Z,68.90
2018-04-13T06:51:04.134Z,69.10
2018-04-13T06:53:32.233Z,69.20
2018-04-13T06:56:01.116Z,69.00
2018-04-13T06:58:29.976Z,68.80
2018-04-13T07:00:58.114Z,68.80
2018-04-13T07:03:26.211Z,69.00
2018-04-13T07:05:54.385Z,68.70
2018-04-13T07:08:22.521Z,68.60
2018-04-13T07:10:50.603Z,68.60
2018-04-13T07:13:19.486Z,68.90
2018-04-13T07:15:48.386Z,68.90
2018-04-13T07:18:17.251Z,68.80
2018-04-13T07:20:45.381Z,68.80
2018-04-13T07:23:13.491Z,69.20
2018-04-13T07:25:41.655Z,69.50
2018-04-13T07:28:09.767Z,69.90
2018-04-13T07:30:37.912Z,69.70
2018-04-13T07:33:06.012Z,69.40
2018-04-13T07:35:34.131Z,69.50
2018-04-13T07:38:02.263Z,69.60
2018-04-13T07:40:30.468Z,69.40
2018-04-13T07:42:59.360Z,68.60
2018-04-13T07:45:28.267Z,67.80
2018-04-13T07:47:57.163Z,68.10
2018-04-13T07:50:25.292Z,68.10
2018-04-13T07:52:53.435Z,68.40
2018-04-13T07:55:21.537Z,67.80
2018-04-13T07:57:49.729Z,67.40
2018-04-13T08:00:18.311Z,67.20
2018-04-13T08:02:46.732Z,66.40
2018-04-13T08:05:14.836Z,66.40
2018-04-13T08:07:42.953Z,66.30
2018-04-13T08:10:11.835Z,65.90
2018-04-13T08:12:39.944Z,66.60
2018-04-13T08:15:08.048Z,65.80
2018-04-13T08:17:36.200Z,65.60
2018-04-13T08:20:04.299Z,65.20
2018-04-13T08:22:33.190Z,65.60
2018-04-13T08:25:02.055Z,65.70
2018-04-13T08:27:30.168Z,65.60
2018-04-13T08:29:58.263Z,65.40
2018-04-13T08:32:26.431Z,65.40
2018-04-13T08:34:54.555Z,65.30
2018-04-13T08:37:22.771Z,65.10
2018-04-13T08:39:50.818Z,65.00
2018-04-13T08:42:18.982Z,64.80
2018-04-13T08:44:47.063Z,65.00
2018-04-13T08:47:15.173Z,65.00
2018-04-13T08:49:44.108Z,64.20
2018-04-13T08:52:12.184Z,64.20
2018-04-13T08:54:40.279Z,64.10
2018-04-13T08:57:08.407Z,64.30
2018-04-13T08:59:36.540Z,64.50
2018-04-13T09:02:04.704Z,64.10
2018-04-13T09:04:33.564Z,64.10
2018-04-13T09:07:01.715Z,64.10
2018-04-13T09:09:30.580Z,64.10
2018-04-13T09:11:59.465Z,63.50
2018-04-13T09:14:39.686Z,63.80
2018-04-13T09:17:07.809Z,63.30
2018-04-13T09:19:35.931Z,63.40
2018-04-13T09:22:04.119Z,63.70
2018-04-13T09:24:32.225Z,63.70
2018-04-13T09:27:01.116Z,63.40
2018-04-13T09:29:29.233Z,63.40
2018-04-13T09:31:58.141Z,63.10
2018-04-13T09:37:00.712Z,62.60
2018-04-13T09:39:29.527Z,62.40
2018-04-13T09:41:58.432Z,62.10
2018-04-13T09:44:27.321Z,61.90
2018-04-13T09:46:55.419Z,61.70
2018-04-13T09:49:25.563Z,61.60
2018-04-13T09:51:53.741Z,61.70
2018-04-13T09:54:21.866Z,61.80
2018-04-13T09:56:49.965Z,61.80
2018-04-13T09:59:18.095Z,61.90
2018-04-13T10:01:46.224Z,61.60
2018-04-13T10:04:14.337Z,61.40
2018-04-13T10:06:42.441Z,61.40
2018-04-13T10:09:10.561Z,61.50
2018-04-13T10:11:38.711Z,61.40
2018-04-13T10:14:07.596Z,61.20
2018-04-13T10:16:35.724Z,61.20
2018-04-13T10:19:03.839Z,61.10
2018-04-13T10:21:31.955Z,61.10
2018-04-13T10:24:00.062Z,61.00
2018-04-13T10:26:28.204Z,60.90
2018-04-13T10:28:56.303Z,60.90
2018-04-13T10:31:24.512Z,60.90
2018-04-13T10:33:52.657Z,60.80
2018-04-13T10:36:20.775Z,60.70
2018-04-13T10:38:48.882Z,60.80
2018-04-13T10:41:17.773Z,60.40
2018-04-13T10:43:46.654Z,60.30
2018-04-13T10:46:14.888Z,60.40
2018-04-13T10:48:43.752Z,59.90
2018-04-13T10:51:12.729Z,60.00
2018-04-13T10:53:40.943Z,60.00
2018-04-13T10:56:09.150Z,59.90
2018-04-13T10:58:43.167Z,59.80
2018-04-13T11:01:11.375Z,59.90
2018-04-13T11:03:39.620Z,59.80
2018-04-13T11:06:08.448Z,59.10
2018-04-13T11:08:36.624Z,59.00
2018-04-13T11:11:05.572Z,58.70
2018-04-13T11:13:33.779Z,58.90
2018-04-13T11:16:01.899Z,58.80
2018-04-13T11:18:30.107Z,58.40
2018-04-13T11:20:58.319Z,58.30
2018-04-13T11:23:26.478Z,58.10
2018-04-13T11:25:54.642Z,58.20
2018-04-13T11:28:22.756Z,58.10
2018-04-13T11:30:50.881Z,57.90
2018-04-13T11:33:19.024Z,57.60
2018-04-13T11:35:47.155Z,57.50
2018-04-13T11:38:15.445Z,57.40
2018-04-13T11:40:43.657Z,57.10
2018-04-13T11:43:11.781Z,56.70
2018-04-13T11:45:39.890Z,56.40
2018-04-13T11:48:08.064Z,56.90
2018-04-13T11:50:36.238Z,56.90
2018-04-13T11:53:04.348Z,56.80
2018-04-13T11:55:32.539Z,56.60
2018-04-13T11:58:00.790Z,57.30
2018-04-13T12:00:28.908Z,56.40
2018-04-13T12:02:57.022Z,56.50
2018-04-13T12:05:25.207Z,56.70
2018-04-13T12:07:53.408Z,57.20
2018-04-13T12:10:21.523Z,56.70
2018-04-13T12:12:49.669Z,56.60
2018-04-13T12:15:17.969Z,56.50
2018-04-13T12:17:46.827Z,55.90
2018-04-13T12:20:14.990Z,55.80
2018-04-13T12:22:43.317Z,55.90
2018-04-13T12:25:12.210Z,56.00
2018-04-13T12:27:41.105Z,55.90
2018-04-13T12:30:10.025Z,55.80
2018-04-13T12:32:38.843Z,55.70
2018-04-13T12:35:07.727Z,55.70
2018-04-13T12:37:35.832Z,55.10
2018-04-13T12:40:03.959Z,54.60
2018-04-13T12:42:32.067Z,54.60
2018-04-13T12:45:00.207Z,54.30
2018-04-13T12:47:28.346Z,53.40
2018-04-13T12:49:56.459Z,53.30
2018-04-13T12:52:31.203Z,54.10
2018-04-13T12:54:59.983Z,54.00
2018-04-13T12:57:28.660Z,54.30
2018-04-13T12:59:56.757Z,54.30
2018-04-13T13:02:24.863Z,54.30
2018-04-13T13:04:52.988Z,54.30
2018-04-13T13:07:22.006Z,54.00
2018-04-13T13:09:50.876Z,53.70
2018-04-13T13:12:19.794Z,53.70
2018-04-13T13:14:51.959Z,53.60
2018-04-13T13:17:20.313Z,53.00
2018-04-13T13:19:48.507Z,52.90
2018-04-13T13:22:17.398Z,54.00
2018-04-13T13:24:46.321Z,52.80
2018-04-13T13:27:14.565Z,52.70
2018-04-13T13:29:43.183Z,52.10
2018-04-13T13:32:11.304Z,51.60
2018-04-13T13:34:39.424Z,51.80
2018-04-13T13:37:08.351Z,52.70
2018-04-13T13:39:36.580Z,52.60
2018-04-13T13:42:04.683Z,52.70
2018-04-13T13:44:32.817Z,52.70
2018-04-13T13:47:00.921Z,52.50
2018-04-13T13:49:29.364Z,52.50
2018-04-13T13:51:57.574Z,52.50
2018-04-13T13:54:26.461Z,52.50
2018-04-13T13:56:54.576Z,52.50
2018-04-13T13:59:22.697Z,52.50
2018-04-13T14:01:51.664Z,52.70
2018-04-13T14:04:19.801Z,52.80
2018-04-13T14:06:47.912Z,52.70
2018-04-13T14:09:16.131Z,52.80
2018-04-13T14:11:44.247Z,52.80
2018-04-13T14:14:13.192Z,52.30
2018-04-13T14:16:41.275Z,52.30
2018-04-13T14:19:09.391Z,52.80
2018-04-13T14:21:38.295Z,53.30
2018-04-13T14:24:07.170Z,53.40
2018-04-13T14:26:35.288Z,53.30
2018-04-13T14:29:04.203Z,53.10
2018-04-13T14:31:32.324Z,53.00
2018-04-13T14:34:00.452Z,53.10
2018-04-13T14:36:28.632Z,53.60
2018-04-13T14:38:56.955Z,53.90
2018-04-13T14:41:26.075Z,54.00
2018-04-13T14:43:54.252Z,54.10
2018-04-13T14:46:23.135Z,53.80
2018-04-13T14:48:51.251Z,53.80
2018-04-13T14:51:19.460Z,53.40
2018-04-13T14:53:47.602Z,53.10
2018-04-13T14:56:15.687Z,53.70
2018-04-13T14:58:43.815Z,53.90
2018-04-13T15:01:11.932Z,54.20
2018-04-13T15:03:40.048Z,55.10
2018-04-13T15:06:08.171Z,54.30
2018-04-13T15:08:36.304Z,54.20
2018-04-13T15:11:04.416Z,55.10
2018-04-13T15:13:33.022Z,54.40
2018-04-13T15:16:01.855Z,54.20
2018-04-13T15:18:30.263Z,54.30
2018-04-13T15:20:59.262Z,53.50
2018-04-13T15:23:27.492Z,53.50
2018-04-13T15:25:55.622Z,54.00
2018-04-13T15:28:24.658Z,54.60
2018-04-13T15:30:52.708Z,54.20
2018-04-13T15:33:21.680Z,54.70
2018-04-13T15:35:49.797Z,54.70
2018-04-13T15:38:17.931Z,54.80
2018-04-13T15:40:46.091Z,54.60
2018-04-13T15:43:14.182Z,54.40
2018-04-13T15:45:42.311Z,54.70
2018-04-13T15:48:10.423Z,54.70
2018-04-13T15:50:39.424Z,54.60
2018-04-13T15:53:07.539Z,54.90
2018-04-13T15:55:36.413Z,54.70
2018-04-13T15:58:04.511Z,54.50
2018-04-13T16:00:32.615Z,54.70
2018-04-13T16:03:00.765Z,55.00
2018-04-13T16:05:29.647Z,55.20
2018-04-13T16:07:58.571Z,55.40
2018-04-13T16:10:27.451Z,55.50
2018-04-13T16:12:55.549Z,55.50
2018-04-13T16:15:23.679Z,55.50
2018-04-13T16:17:51.774Z,55.60
2018-04-13T16:20:20.671Z,55.50
2018-04-13T16:22:49.544Z,55.60
2018-04-13T16:25:17.639Z,55.50
2018-04-13T16:27:46.528Z,55.70
2018-04-13T16:30:14.643Z,55.70
2018-04-13T16:32:42.798Z,55.90
2018-04-13T16:35:12.632Z,55.70
2018-04-13T16:37:41.196Z,55.60
2018-04-13T16:40:09.408Z,55.60
2018-04-13T16:42:37.519Z,55.80
2018-04-13T16:45:05.645Z,55.80
2018-04-13T16:47:33.779Z,55.80
2018-04-13T16:50:01.893Z,55.90
2018-04-13T16:52:30.055Z,56.00
2018-04-13T16:54:58.500Z,56.00
2018-04-13T16:57:26.635Z,56.10
2018-04-13T16:59:54.759Z,55.80
2018-04-13T17:02:22.894Z,56.00
2018-04-13T17:04:51.012Z,56.00
2018-04-13T17:07:19.190Z,56.10
2018-04-13T17:09:47.289Z,56.10
2018-04-13T17:12:15.415Z,56.00
2018-04-13T17:14:43.536Z,56.10
2018-04-13T17:17:11.667Z,56.30
2018-04-13T17:19:39.795Z,56.20
2018-04-13T17:22:07.897Z,56.30
2018-04-13T17:24:36.012Z,56.40
2018-04-13T17:27:04.253Z,56.30
2018-04-13T17:29:32.709Z,56.50
2018-04-13T17:32:00.817Z,56.60
2018-04-13T17:34:29.711Z,56.60
2018-04-13T17:36:57.941Z,56.60
2018-04-13T17:39:27.080Z,56.80
2018-04-13T17:41:55.963Z,56.80
2018-04-13T17:44:24.861Z,56.80
2018-04-13T17:46:53.066Z,56.80
2018-04-13T17:49:21.915Z,56.80
2018-04-13T17:51:51.490Z,57.40
2018-04-13T17:54:19.603Z,56.90
2018-04-13T17:56:47.710Z,57.00
2018-04-13T17:59:15.847Z,56.90
2018-04-13T18:01:44.052Z,57.00
2018-04-13T18:04:12.924Z,57.00
2018-04-13T18:06:41.056Z,56.90
2018-04-13T18:09:09.898Z,57.10
2018-04-13T18:11:38.035Z,57.00
2018-04-13T18:14:06.143Z,57.00
2018-04-13T18:16:34.248Z,57.00
2018-04-13T18:19:03.132Z,57.20
2018-04-13T18:21:32.117Z,57.20
2018-04-13T18:24:00.226Z,57.10
2018-04-13T18:26:28.364Z,57.20
2018-04-13T18:28:56.475Z,57.20
2018-04-13T18:31:25.359Z,57.50
2018-04-13T18:33:54.244Z,57.50
2018-04-13T18:36:22.352Z,57.50
2018-04-13T18:38:50.462Z,57.50
2018-04-13T18:41:18.618Z,57.30
2018-04-13T18:43:46.743Z,57.40
2018-04-13T18:46:14.872Z,57.30
2018-04-13T18:48:42.960Z,57.20
2018-04-13T18:51:11.084Z,57.30
2018-04-13T18:53:39.179Z,57.10
2018-04-13T18:56:07.319Z,57.10
2018-04-13T18:58:35.426Z,57.20
2018-04-13T19:01:04.292Z,57.40
2018-04-13T19:03:32.433Z,57.30
2018-04-13T19:06:01.280Z,57.50
2018-04-13T19:08:30.199Z,57.80
2018-04-13T19:10:59.087Z,57.50
2018-04-13T19:13:28.152Z,57.60
2018-04-13T19:15:56.245Z,57.50
2018-04-13T19:18:24.391Z,57.60
2018-04-13T19:20:52.518Z,57.50
2018-04-13T19:23:21.413Z,57.50
2018-04-13T19:25:50.279Z,57.60
2018-04-13T19:28:18.395Z,57.60
2018-04-13T19:30:46.501Z,57.60
2018-04-13T19:33:14.613Z,57.60
2018-04-13T19:35:42.752Z,57.70
2018-04-13T19:38:10.873Z,57.70
2018-04-13T19:40:38.971Z,57.70
2018-04-13T19:43:07.100Z,57.70
2018-04-13T19:45:35.222Z,57.70
2018-04-13T19:48:04.171Z,57.80
2018-04-13T19:50:32.277Z,57.80
2018-04-13T19:53:00.413Z,57.80
2018-04-13T19:55:28.509Z,57.90
2018-04-13T19:57:56.656Z,57.80
2018-04-13T20:00:26.350Z,57.90
2018-04-13T20:02:54.488Z,58.00
2018-04-13T20:05:22.718Z,58.00
2018-04-13T20:07:51.567Z,58.00
2018-04-13T20:10:19.680Z,58.00
2018-04-13T20:12:47.815Z,58.10
2018-04-13T20:15:20.263Z,58.10
2018-04-13T20:17:48.375Z,58.10
2018-04-13T20:20:16.504Z,58.20
2018-04-13T20:22:44.618Z,58.20
2018-04-13T20:25:12.720Z,58.30
2018-04-13T20:27:41.618Z,58.30
2018-04-13T20:30:10.493Z,58.40
2018-04-13T20:32:38.730Z,58.40
2018-04-13T20:35:06.828Z,58.40
2018-04-13T20:37:34.940Z,58.40
2018-04-13T20:40:03.818Z,58.40
2018-04-13T20:42:31.931Z,58.40
2018-04-13T20:45:00.041Z,58.50
2018-04-13T20:47:28.152Z,58.60
2018-04-13T20:49:56.248Z,58.60
2018-04-13T20:52:24.839Z,58.60
2018-04-13T20:54:52.963Z,58.70
2018-04-13T20:57:21.084Z,58.70
2018-04-13T20:59:49.967Z,58.80
2018-04-13T21:02:18.174Z,58.80
2018-04-13T21:04:46.337Z,58.80
2018-04-13T21:07:15.225Z,58.80
2018-04-13T21:09:43.335Z,58.80
2018-04-13T21:12:11.495Z,58.80
2018-04-13T21:14:40.359Z,58.90
2018-04-13T21:17:08.476Z,58.90
2018-04-13T21:19:36.582Z,58.80
2018-04-13T21:22:04.691Z,58.80
2018-04-13T21:24:32.830Z,58.90
2018-04-13T21:27:00.949Z,58.90
2018-04-13T21:29:31.314Z,58.90
2018-04-13T21:31:59.464Z,59.60
2018-04-13T21:34:28.347Z,59.10
2018-04-13T21:36:56.447Z,59.00
2018-04-13T21:39:25.335Z,59.00
2018-04-13T21:41:54.225Z,59.00
2018-04-13T21:44:23.100Z,59.00
2018-04-13T21:46:51.221Z,59.00
2018-04-13T21:49:19.327Z,59.10
2018-04-13T21:51:47.448Z,59.10
2018-04-13T21:54:16.362Z,59.10
2018-04-13T21:56:44.485Z,59.10
2018-04-13T21:59:12.603Z,59.10
2018-04-13T22:01:40.987Z,59.20
2018-04-13T22:04:09.883Z,59.20
2018-04-13T22:06:38.090Z,59.10
2018-04-13T22:09:06.931Z,59.30
2018-04-13T22:11:37.562Z,59.40
2018-04-13T22:14:17.527Z,59.30
2018-04-13T22:16:45.619Z,59.40
2018-04-13T22:19:13.731Z,59.30
2018-04-13T22:21:41.835Z,59.40
2018-04-13T22:24:09.950Z,59.40
2018-04-13T22:26:38.079Z,59.40
2018-04-13T22:29:06.232Z,59.50
2018-04-13T22:31:34.289Z,59.60
2018-04-13T22:34:02.418Z,59.60
2018-04-13T22:36:31.308Z,59.60
2018-04-13T22:38:59.419Z,59.60
2018-04-13T22:41:28.318Z,59.70
2018-04-13T22:43:57.240Z,60.10
2018-04-13T22:46:25.363Z,59.70
2018-04-13T22:48:53.471Z,59.70
2018-04-13T22:51:21.641Z,59.70
2018-04-13T22:53:49.746Z,59.70
2018-04-13T22:56:17.859Z,59.70
2018-04-13T22:58:45.993Z,59.80
2018-04-13T23:01:14.111Z,59.70
2018-04-13T23:03:42.215Z,59.70
2018-04-13T23:06:11.098Z,59.90
2018-04-13T23:08:39.222Z,59.80
2018-04-13T23:11:07.328Z,59.80
2018-04-13T23:13:35.513Z,59.80
2018-04-13T23:16:03.777Z,59.80
2018-04-13T23:18:32.663Z,60.50
2018-04-13T23:21:03.049Z,59.80
2018-04-13T23:23:31.907Z,59.90
2018-04-13T23:26:00.784Z,59.90
2018-04-13T23:28:28.903Z,59.90
2018-04-13T23:30:57.080Z,60.00
2018-04-13T23:33:25.204Z,59.90
2018-04-13T23:35:53.327Z,60.00
2018-04-13T23:38:21.443Z,60.00
2018-04-13T23:40:49.563Z,60.00
2018-04-13T23:43:17.672Z,60.00
2018-04-13T23:45:45.790Z,60.20
2018-04-13T23:48:13.955Z,60.10
2018-04-13T23:50:42.043Z,60.20
2018-04-13T23:53:10.278Z,60.30
2018-04-13T23:58:12.108Z,60.20
